createdAt,value
2023-06-13T00:02:51.486Z,100238.22
2023-06-13T00:08:02.233Z,100233.06
2023-06-13T00:18:38.755Z,100236.91
2023-06-13T00:23:43.418Z,100237.25
2023-06-13T00:34:55.144Z,100245.47
2023-06-13T00:39:59.687Z,100239.81
2023-06-13T00:45:47.453Z,100233.38
2023-06-13T00:51:08.508Z,100232.72
2023-06-13T00:56:18.961Z,100224.25
2023-06-13T01:01:27.068Z,100229.09
2023-06-13T01:06:31.278Z,100228.88
2023-06-13T01:17:42.832Z,100231.69
2023-06-13T01:22:58.351Z,100226.84
2023-06-13T01:34:24.875Z,100237.59
2023-06-13T01:39:26.606Z,100231.41
2023-06-13T01:55:45.858Z,100222.22
2023-06-13T02:06:55.204Z,100228.94
2023-06-13T02:11:59.895Z,100218.59
2023-06-13T02:17:38.527Z,100226.38
2023-06-13T02:22:50.884Z,100219.34
2023-06-13T02:27:58.567Z,100217.41
2023-06-13T02:33:00.431Z,100218.28
2023-06-13T02:38:43.378Z,100213.56
2023-06-13T02:43:52.564Z,100217.53
2023-06-13T02:48:57.077Z,100209.44
2023-06-13T02:54:05.159Z,100221.06
2023-06-13T02:59:08.246Z,100222.69
2023-06-13T03:10:16.350Z,100215.41
2023-06-13T03:15:19.953Z,100214.56
2023-06-13T03:20:30.939Z,100217.53
2023-06-13T03:26:00.480Z,100221.84
2023-06-13T03:31:12.629Z,100221.13
2023-06-13T03:36:14.410Z,100218.16
2023-06-13T03:41:22.156Z,100210.53
2023-06-13T03:47:05.372Z,100208.13
2023-06-13T03:52:22.319Z,100219.56
2023-06-13T03:57:39.404Z,100209.69
2023-06-13T04:02:45.576Z,100219.28
2023-06-13T04:07:48.006Z,100219.00
2023-06-13T04:13:44.093Z,100222.34
2023-06-13T04:24:09.125Z,100243.47
2023-06-13T04:29:22.859Z,100253.69
2023-06-13T04:34:25.928Z,100250.75
2023-06-13T04:39:30.460Z,100254.41
2023-06-13T04:44:32.396Z,100247.13
2023-06-13T04:50:09.334Z,100258.94
2023-06-13T04:55:47.721Z,100274.25
2023-06-13T05:00:49.520Z,100268.34
2023-06-13T05:05:55.530Z,100274.47
2023-06-13T05:11:23.876Z,100271.75
2023-06-13T05:16:53.342Z,100278.72
2023-06-13T05:22:00.354Z,100285.16
2023-06-13T05:27:20.451Z,100281.75
2023-06-13T05:32:25.007Z,100283.72
2023-06-13T05:37:31.282Z,100276.06
2023-06-13T05:42:33.091Z,100272.31
2023-06-13T05:47:53.652Z,100273.72
2023-06-13T05:52:56.762Z,100269.13
2023-06-13T05:58:07.489Z,100269.75
2023-06-13T06:03:12.250Z,100276.31
2023-06-13T06:14:10.088Z,100267.78
2023-06-13T06:19:35.903Z,100272.09
2023-06-13T06:24:57.866Z,100268.56
2023-06-13T06:30:19.468Z,100263.25
2023-06-13T06:35:21.226Z,100265.72
2023-06-13T06:46:34.040Z,100266.34
2023-06-13T06:51:39.130Z,100265.00
2023-06-13T07:01:58.198Z,100254.97
2023-06-13T07:07:03.134Z,100249.75
2023-06-13T07:12:29.152Z,100257.28
2023-06-13T07:18:06.270Z,100251.63
2023-06-13T07:23:08.037Z,100251.00
2023-06-13T07:28:12.748Z,100253.03
2023-06-13T07:39:32.263Z,100259.53
2023-06-13T07:44:34.016Z,100248.88
2023-06-13T07:49:41.988Z,100242.69
2023-06-13T08:00:55.495Z,100235.41
2023-06-13T08:06:28.204Z,100217.81
2023-06-13T08:17:42.416Z,100219.41
2023-06-13T08:22:56.101Z,100223.41
2023-06-13T08:34:10.365Z,100210.06
2023-06-13T08:39:21.883Z,100216.81
2023-06-13T08:44:23.842Z,100210.34
2023-06-13T08:50:18.128Z,100217.94
2023-06-13T08:56:04.400Z,100207.75
2023-06-13T09:01:56.280Z,100203.00
2023-06-13T09:07:26.697Z,100195.38
2023-06-13T09:18:12.586Z,100185.66
2023-06-13T09:34:17.086Z,100190.72
2023-06-13T09:45:41.685Z,100195.13
2023-06-13T10:02:25.315Z,100154.03
2023-06-13T10:07:33.177Z,100155.63
2023-06-13T10:12:49.960Z,100153.03
2023-06-13T10:18:42.922Z,100145.47
2023-06-13T10:24:03.903Z,100147.06
2023-06-13T10:35:50.403Z,100154.78
2023-06-13T10:41:36.002Z,100150.25
2023-06-13T10:46:38.403Z,100143.22
2023-06-13T10:52:04.975Z,100144.00
2023-06-13T10:57:45.358Z,100134.22
2023-06-13T11:03:07.432Z,100139.09
2023-06-13T11:08:20.909Z,100118.16
2023-06-13T11:13:38.788Z,100111.03
2023-06-13T11:24:44.445Z,100104.44
2023-06-13T11:29:54.257Z,100108.44
2023-06-13T11:40:52.590Z,100092.16
2023-06-13T11:46:16.701Z,100085.69
2023-06-13T11:56:54.837Z,100093.38
2023-06-13T12:01:56.643Z,100080.97
2023-06-13T12:07:11.863Z,100077.22
2023-06-13T12:12:19.609Z,100059.56
2023-06-13T12:17:30.341Z,100064.31
2023-06-13T12:23:04.315Z,100074.88
2023-06-13T12:28:12.022Z,100065.03
2023-06-13T12:33:18.641Z,100055.97
2023-06-13T12:38:31.829Z,100050.19
2023-06-13T12:43:43.368Z,100048.63
2023-06-13T12:48:58.614Z,100039.88
2023-06-13T12:54:26.312Z,100042.06
2023-06-13T12:59:45.087Z,100037.44
2023-06-13T13:04:50.653Z,100027.22
2023-06-13T13:16:17.597Z,100015.19
2023-06-13T13:21:19.407Z,100019.91
2023-06-13T13:26:27.103Z,100007.88
2023-06-13T13:31:42.061Z,100010.75
2023-06-13T13:36:43.922Z,100006.59
2023-06-13T13:41:45.601Z,100007.47
2023-06-13T13:46:57.125Z,100000.38
2023-06-13T13:57:55.141Z,99981.34
2023-06-13T14:03:13.670Z,99983.34
2023-06-13T14:14:52.563Z,99995.72
2023-06-13T14:19:58.685Z,99985.47
2023-06-13T14:25:07.174Z,99974.91
2023-06-13T14:36:21.393Z,99970.09
2023-06-13T14:47:32.224Z,99955.84
2023-06-13T14:53:07.496Z,99966.19
2023-06-13T14:58:10.954Z,99949.91
2023-06-13T15:03:30.212Z,99944.66
2023-06-13T15:14:39.487Z,99938.81
2023-06-13T15:25:45.106Z,99942.72
2023-06-13T15:31:03.044Z,99941.84
2023-06-13T15:36:35.446Z,99933.78
2023-06-13T15:41:40.316Z,99932.84
2023-06-13T15:57:43.490Z,99934.66
2023-06-13T16:09:07.998Z,99927.94
2023-06-13T16:20:13.600Z,99930.06
2023-06-13T16:25:31.884Z,99921.53
2023-06-13T16:30:43.238Z,99916.88
2023-06-13T16:35:57.071Z,99925.47
2023-06-13T16:41:00.246Z,99932.34
2023-06-13T16:46:26.796Z,99935.53
2023-06-13T16:57:32.607Z,99921.19
2023-06-13T17:03:08.255Z,99928.50
2023-06-13T17:07:59.960Z,99925.16
2023-06-13T17:13:27.021Z,99918.56
2023-06-13T17:18:50.759Z,99930.41
2023-06-13T17:23:52.484Z,99930.97
2023-06-13T17:29:01.933Z,99928.53
2023-06-13T17:40:03.076Z,99932.16
2023-06-13T17:45:07.027Z,99932.84
2023-06-13T17:50:14.526Z,99936.78
2023-06-13T17:55:43.785Z,99940.91
2023-06-13T18:01:05.386Z,99938.00
2023-06-13T18:06:32.020Z,99941.50
2023-06-13T18:17:47.730Z,99949.44
2023-06-13T18:22:55.657Z,99952.53
2023-06-13T18:28:03.716Z,99946.56
2023-06-13T18:33:06.794Z,99945.75
2023-06-13T18:38:11.744Z,99953.56
2023-06-13T18:43:13.300Z,99952.94
2023-06-13T18:48:31.145Z,99960.63
2023-06-13T18:53:54.855Z,99956.25
2023-06-13T18:59:02.760Z,99962.88
2023-06-13T19:04:12.159Z,99966.22
2023-06-13T19:09:13.925Z,99972.41
2023-06-13T19:14:15.687Z,99976.16
2023-06-13T19:19:50.080Z,99983.78
2023-06-13T19:25:07.731Z,99989.38
2023-06-13T19:30:15.409Z,99992.28
2023-06-13T19:35:18.874Z,100001.84
2023-06-13T19:40:26.265Z,100009.50
2023-06-13T19:45:39.966Z,100023.38
2023-06-13T19:51:18.017Z,100025.06
2023-06-13T19:56:45.531Z,100032.97
2023-06-13T20:01:47.414Z,100047.47
2023-06-13T20:06:56.634Z,100046.84
2023-06-13T20:17:57.883Z,100059.69
2023-06-13T20:23:03.747Z,100063.88
2023-06-13T20:28:05.705Z,100069.03
2023-06-13T20:33:13.482Z,100068.63
2023-06-13T20:43:54.155Z,100082.69
2023-06-13T20:48:55.879Z,100085.59
2023-06-13T20:50:36.460Z,100086.22
2023-06-13T20:53:59.141Z,100083.31
2023-06-13T21:05:23.240Z,100097.56
2023-06-13T21:11:05.512Z,100099.22
2023-06-13T21:27:25.793Z,100107.88
2023-06-13T21:32:32.291Z,100112.13
2023-06-13T21:38:04.882Z,100104.50
2023-06-13T21:43:09.643Z,100110.25
2023-06-13T21:48:18.580Z,100114.38
2023-06-13T21:59:32.013Z,100118.50
2023-06-13T22:04:47.282Z,100113.31
2023-06-13T22:10:26.011Z,100123.81
2023-06-13T22:21:41.302Z,100120.28
2023-06-13T22:26:55.006Z,100140.28
2023-06-13T22:32:02.900Z,100143.97
2023-06-13T22:37:24.553Z,100152.00
2023-06-13T22:42:32.486Z,100142.28
2023-06-13T22:48:18.485Z,100149.69
2023-06-13T22:53:30.977Z,100149.47
2023-06-13T22:58:39.296Z,100154.78
2023-06-13T23:09:48.059Z,100156.59
2023-06-13T23:20:58.806Z,100156.13
2023-06-13T23:37:55.789Z,100175.50
2023-06-13T23:43:00.625Z,100175.72
2023-06-13T23:54:28.644Z,100176.19
